sensor_id;sensor_type;location;lat;lon;timestamp;pressure;altitude;pressure_sealevel;temperature;humidity
57038;BME280;59942;49.304;8.256;2022-08-01T00:00:13;100275.84;;;25.46;39.30
57038;BME280;59942;49.304;8.256;2022-08-01T00:02:40;100305.56;;;25.58;38.89
57038;BME280;59942;49.304;8.256;2022-08-01T00:05:08;100276.16;;;25.43;38.81
57038;BME280;59942;49.304;8.256;2022-08-01T00:07:36;100310.84;;;25.66;40.57
57038;BME280;59942;49.304;8.256;2022-08-01T00:10:05;100306.91;;;25.62;39.09
57038;BME280;59942;49.304;8.256;2022-08-01T00:12:32;100303.41;;;25.62;39.40
57038;BME280;59942;49.304;8.256;2022-08-01T00:14:59;100302.91;;;25.58;39.25
57038;BME280;59942;49.304;8.256;2022-08-01T00:17:26;100314.53;;;25.65;39.42
57038;BME280;59942;49.304;8.256;2022-08-01T00:19:53;100317.16;;;25.57;39.76
57038;BME280;59942;49.304;8.256;2022-08-01T00:22:20;100318.66;;;25.52;42.06
57038;BME280;59942;49.304;8.256;2022-08-01T00:24:47;100256.53;;;24.95;40.33
57038;BME280;59942;49.304;8.256;2022-08-01T00:27:14;100325.03;;;25.16;41.66
57038;BME280;59942;49.304;8.256;2022-08-01T00:29:43;100316.41;;;25.14;41.55
57038;BME280;59942;49.304;8.256;2022-08-01T00:32:31;100319.56;;;25.26;40.99
57038;BME280;59942;49.304;8.256;2022-08-01T00:34:58;100331.06;;;25.35;41.13
57038;BME280;59942;49.304;8.256;2022-08-01T00:37:25;100321.31;;;25.35;41.92
57038;BME280;59942;49.304;8.256;2022-08-01T00:39:54;100284.38;;;25.07;40.56
57038;BME280;59942;49.304;8.256;2022-08-01T00:42:21;100329.09;;;25.45;40.04
57038;BME280;59942;49.304;8.256;2022-08-01T00:44:48;100320.81;;;25.40;40.43
57038;BME280;59942;49.304;8.256;2022-08-01T00:47:15;100315.84;;;25.37;40.45
57038;BME280;59942;49.304;8.256;2022-08-01T00:49:42;100314.00;;;25.37;40.61
57038;BME280;59942;49.304;8.256;2022-08-01T00:52:09;100326.94;;;25.40;40.43
57038;BME280;59942;49.304;8.256;2022-08-01T00:54:36;100329.75;;;25.39;40.50
57038;BME280;59942;49.304;8.256;2022-08-01T00:57:04;100321.47;;;25.34;40.88
57038;BME280;59942;49.304;8.256;2022-08-01T00:59:36;100330.75;;;25.46;40.96
57038;BME280;59942;49.304;8.256;2022-08-01T01:02:06;100324.13;;;25.34;41.15
57038;BME280;59942;49.304;8.256;2022-08-01T01:04:41;100331.06;;;25.35;41.44
57038;BME280;59942;49.304;8.256;2022-08-01T01:07:27;100325.22;;;25.23;43.01
57038;BME280;59942;49.304;8.256;2022-08-01T01:10:00;100331.16;;;25.08;41.79
57038;BME280;59942;49.304;8.256;2022-08-01T01:12:37;100338.09;;;25.01;42.41
57038;BME280;59942;49.304;8.256;2022-08-01T01:15:15;100334.63;;;25.09;41.74
57038;BME280;59942;49.304;8.256;2022-08-01T01:17:56;100321.69;;;25.06;41.96
57038;BME280;59942;49.304;8.256;2022-08-01T01:20:29;100330.16;;;25.09;42.08
57038;BME280;59942;49.304;8.256;2022-08-01T01:31:10;100318.28;;;24.87;42.73
57038;BME280;59942;49.304;8.256;2022-08-01T01:33:40;100341.22;;;24.96;42.16
57038;BME280;59942;49.304;8.256;2022-08-01T01:36:14;100316.13;;;24.83;42.75
57038;BME280;59942;49.304;8.256;2022-08-01T01:38:45;100340.41;;;24.96;42.56
57038;BME280;59942;49.304;8.256;2022-08-01T01:41:15;100334.91;;;24.89;42.74
57038;BME280;59942;49.304;8.256;2022-08-01T01:43:45;100311.09;;;24.71;43.02
57038;BME280;59942;49.304;8.256;2022-08-01T01:46:17;100306.34;;;24.49;43.63
57038;BME280;59942;49.304;8.256;2022-08-01T01:48:46;100326.59;;;24.58;43.66
57038;BME280;59942;49.304;8.256;2022-08-01T01:51:15;100340.44;;;24.70;44.11
57038;BME280;59942;49.304;8.256;2022-08-01T01:53:44;100336.09;;;24.60;43.34
57038;BME280;59942;49.304;8.256;2022-08-01T01:56:15;100325.78;;;24.57;44.92
57038;BME280;59942;49.304;8.256;2022-08-01T01:58:43;100346.69;;;24.60;43.88
57038;BME280;59942;49.304;8.256;2022-08-01T02:01:10;100346.38;;;24.64;43.44
57038;BME280;59942;49.304;8.256;2022-08-01T02:03:42;100345.56;;;24.63;43.71
57038;BME280;59942;49.304;8.256;2022-08-01T02:06:13;100334.41;;;24.59;44.48
57038;BME280;59942;49.304;8.256;2022-08-01T02:08:42;100344.50;;;24.56;44.25
57038;BME280;59942;49.304;8.256;2022-08-01T02:11:10;100346.09;;;24.49;43.92
57038;BME280;59942;49.304;8.256;2022-08-01T02:13:57;100347.63;;;24.51;44.04
57038;BME280;59942;49.304;8.256;2022-08-01T02:16:28;100344.44;;;24.48;44.81
57038;BME280;59942;49.304;8.256;2022-08-01T02:18:56;100346.28;;;24.47;44.66
57038;BME280;59942;49.304;8.256;2022-08-01T02:22:00;100345.31;;;24.56;44.48
57038;BME280;59942;49.304;8.256;2022-08-01T02:24:39;100335.44;;;24.40;44.96
57038;BME280;59942;49.304;8.256;2022-08-01T02:27:14;100334.47;;;24.15;47.14
57038;BME280;59942;49.304;8.256;2022-08-01T02:29:52;100349.75;;;24.03;46.25
57038;BME280;59942;49.304;8.256;2022-08-01T02:32:24;100349.47;;;24.06;46.31
57038;BME280;59942;49.304;8.256;2022-08-01T02:34:53;100356.41;;;24.07;45.95
57038;BME280;59942;49.304;8.256;2022-08-01T02:37:23;100353.34;;;23.94;46.29
57038;BME280;59942;49.304;8.256;2022-08-01T02:39:54;100351.91;;;24.00;46.44
57038;BME280;59942;49.304;8.256;2022-08-01T02:42:24;100351.06;;;23.99;47.63
57038;BME280;59942;49.304;8.256;2022-08-01T02:44:54;100351.81;;;23.91;47.56
57038;BME280;59942;49.304;8.256;2022-08-01T02:47:22;100356.31;;;23.91;46.36
57038;BME280;59942;49.304;8.256;2022-08-01T02:49:51;100326.56;;;23.79;46.25
57038;BME280;59942;49.304;8.256;2022-08-01T02:52:21;100361.78;;;23.98;47.78
57038;BME280;59942;49.304;8.256;2022-08-01T02:54:52;100359.53;;;23.67;47.51
57038;BME280;59942;49.304;8.256;2022-08-01T02:57:20;100345.06;;;23.61;48.01
57038;BME280;59942;49.304;8.256;2022-08-01T02:59:53;100355.19;;;23.66;47.42
57038;BME280;59942;49.304;8.256;2022-08-01T03:02:23;100351.19;;;23.80;46.77
57038;BME280;59942;49.304;8.256;2022-08-01T03:04:52;100343.88;;;23.91;46.61
57038;BME280;59942;49.304;8.256;2022-08-01T03:07:23;100325.41;;;23.82;46.62
57038;BME280;59942;49.304;8.256;2022-08-01T03:10:00;100346.06;;;23.96;46.64
57038;BME280;59942;49.304;8.256;2022-08-01T03:12:29;100349.25;;;24.00;46.72
57038;BME280;59942;49.304;8.256;2022-08-01T03:15:01;100320.94;;;23.82;46.51
57038;BME280;59942;49.304;8.256;2022-08-01T03:17:29;100340.09;;;23.94;46.57
57038;BME280;59942;49.304;8.256;2022-08-01T03:19:58;100341.53;;;23.88;46.57
57038;BME280;59942;49.304;8.256;2022-08-01T03:22:29;100314.69;;;23.65;47.32
57038;BME280;59942;49.304;8.256;2022-08-01T03:24:58;100326.25;;;23.46;48.88
57038;BME280;59942;49.304;8.256;2022-08-01T03:27:26;100349.59;;;23.33;48.83
57038;BME280;59942;49.304;8.256;2022-08-01T03:29:55;100351.84;;;23.28;49.98
57038;BME280;59942;49.304;8.256;2022-08-01T03:32:25;100350.13;;;23.36;48.33
57038;BME280;59942;49.304;8.256;2022-08-01T03:34:53;100346.41;;;23.29;48.86
57038;BME280;59942;49.304;8.256;2022-08-01T03:37:36;100355.09;;;23.21;49.01
57038;BME280;59942;49.304;8.256;2022-08-01T03:40:36;100359.78;;;23.28;48.78
57038;BME280;59942;49.304;8.256;2022-08-01T03:43:07;100337.72;;;23.09;50.24
57038;BME280;59942;49.304;8.256;2022-08-01T03:45:38;100356.44;;;22.98;49.82
57038;BME280;59942;49.304;8.256;2022-08-01T03:48:10;100361.19;;;22.94;49.95
57038;BME280;59942;49.304;8.256;2022-08-01T03:50:43;100361.41;;;23.01;49.56
57038;BME280;59942;49.304;8.256;2022-08-01T03:53:13;100350.91;;;22.91;50.06
57038;BME280;59942;49.304;8.256;2022-08-01T03:55:42;100356.50;;;22.88;51.37
57038;BME280;59942;49.304;8.256;2022-08-01T03:58:11;100357.84;;;22.54;52.22
57038;BME280;59942;49.304;8.256;2022-08-01T04:00:39;100354.00;;;22.29;51.96
57038;BME280;59942;49.304;8.256;2022-08-01T04:03:08;100325.63;;;22.31;52.95
57038;BME280;59942;49.304;8.256;2022-08-01T04:05:35;100352.00;;;22.61;51.18
57038;BME280;59942;49.304;8.256;2022-08-01T04:08:03;100317.25;;;22.55;52.03
57038;BME280;59942;49.304;8.256;2022-08-01T04:10:30;100353.47;;;22.73;50.75
57038;BME280;59942;49.304;8.256;2022-08-01T04:12:57;100326.34;;;22.43;52.94
57038;BME280;59942;49.304;8.256;2022-08-01T04:15:23;100294.38;;;22.36;51.23
57038;BME280;59942;49.304;8.256;2022-08-01T04:17:50;100355.81;;;22.76;50.75
57038;BME280;59942;49.304;8.256;2022-08-01T04:20:17;100350.66;;;22.84;50.43
57038;BME280;59942;49.304;8.256;2022-08-01T04:22:45;100364.03;;;22.83;50.92
57038;BME280;59942;49.304;8.256;2022-08-01T04:25:25;100333.59;;;22.69;50.58
57038;BME280;59942;49.304;8.256;2022-08-01T04:27:54;100371.59;;;22.68;51.00
57038;BME280;59942;49.304;8.256;2022-08-01T04:30:25;100371.09;;;22.45;53.34
57038;BME280;59942;49.304;8.256;2022-08-01T04:32:54;100373.25;;;22.69;51.03
57038;BME280;59942;49.304;8.256;2022-08-01T04:35:22;100381.16;;;22.69;51.38
57038;BME280;59942;49.304;8.256;2022-08-01T04:38:14;100384.66;;;22.69;51.51
57038;BME280;59942;49.304;8.256;2022-08-01T04:40:45;100380.31;;;22.78;50.79
57038;BME280;59942;49.304;8.256;2022-08-01T04:43:12;100386.16;;;22.72;51.37
57038;BME280;59942;49.304;8.256;2022-08-01T04:45:42;100382.41;;;22.75;51.36
57038;BME280;59942;49.304;8.256;2022-08-01T04:48:10;100384.13;;;22.56;53.03
57038;BME280;59942;49.304;8.256;2022-08-01T04:50:38;100375.22;;;22.57;51.61
57038;BME280;59942;49.304;8.256;2022-08-01T04:53:16;100360.69;;;22.43;52.71
57038;BME280;59942;49.304;8.256;2022-08-01T04:55:45;100390.25;;;22.57;51.92
57038;BME280;59942;49.304;8.256;2022-08-01T04:58:15;100383.59;;;22.52;51.88
57038;BME280;59942;49.304;8.256;2022-08-01T05:00:44;100356.78;;;22.18;53.55
57038;BME280;59942;49.304;8.256;2022-08-01T05:03:11;100376.13;;;22.38;52.13
57038;BME280;59942;49.304;8.256;2022-08-01T05:05:39;100383.59;;;22.43;53.98
57038;BME280;59942;49.304;8.256;2022-08-01T05:08:05;100384.88;;;22.19;53.39
57038;BME280;59942;49.304;8.256;2022-08-01T05:10:33;100377.91;;;22.08;53.90
57038;BME280;59942;49.304;8.256;2022-08-01T05:13:00;100373.78;;;22.06;54.33
57038;BME280;59942;49.304;8.256;2022-08-01T05:15:27;100319.31;;;21.75;53.70
57038;BME280;59942;49.304;8.256;2022-08-01T05:17:54;100386.94;;;22.25;54.61
57038;BME280;59942;49.304;8.256;2022-08-01T05:20:22;100380.03;;;22.14;54.67
57038;BME280;59942;49.304;8.256;2022-08-01T05:22:49;100376.53;;;22.33;53.13
57038;BME280;59942;49.304;8.256;2022-08-01T05:25:31;100352.78;;;22.33;52.18
57038;BME280;59942;49.304;8.256;2022-08-01T05:28:23;100365.31;;;22.69;53.07
57038;BME280;59942;49.304;8.256;2022-08-01T05:30:59;100373.47;;;22.85;52.79
57038;BME280;59942;49.304;8.256;2022-08-01T05:33:41;100377.09;;;22.84;53.07
57038;BME280;59942;49.304;8.256;2022-08-01T05:36:11;100387.50;;;22.86;52.45
57038;BME280;59942;49.304;8.256;2022-08-01T05:38:38;100345.31;;;22.66;52.73
57038;BME280;59942;49.304;8.256;2022-08-01T05:41:07;100377.50;;;22.89;51.72
57038;BME280;59942;49.304;8.256;2022-08-01T05:44:06;100383.91;;;22.87;53.41
57038;BME280;59942;49.304;8.256;2022-08-01T05:46:33;100385.69;;;22.86;52.61
57038;BME280;59942;49.304;8.256;2022-08-01T05:49:02;100381.41;;;22.85;52.49
57038;BME280;59942;49.304;8.256;2022-08-01T05:51:29;100359.13;;;22.88;52.13
57038;BME280;59942;49.304;8.256;2022-08-01T05:53:57;100382.25;;;23.14;52.25
57038;BME280;59942;49.304;8.256;2022-08-01T05:56:24;100390.88;;;23.26;52.31
57038;BME280;59942;49.304;8.256;2022-08-01T05:58:57;100380.41;;;23.24;52.08
57038;BME280;59942;49.304;8.256;2022-08-01T06:01:24;100389.41;;;23.31;51.47
57038;BME280;59942;49.304;8.256;2022-08-01T06:03:51;100388.69;;;23.39;51.53
57038;BME280;59942;49.304;8.256;2022-08-01T06:06:21;100367.44;;;23.31;51.54
57038;BME280;59942;49.304;8.256;2022-08-01T06:08:51;100398.41;;;23.84;50.30
57038;BME280;59942;49.304;8.256;2022-08-01T06:11:18;100397.66;;;23.74;50.44
57038;BME280;59942;49.304;8.256;2022-08-01T06:13:45;100403.66;;;23.94;50.07
57038;BME280;59942;49.304;8.256;2022-08-01T06:16:15;100390.25;;;23.96;49.77
57038;BME280;59942;49.304;8.256;2022-08-01T06:18:42;100392.59;;;23.99;49.68
57038;BME280;59942;49.304;8.256;2022-08-01T06:21:09;100347.78;;;23.51;50.42
57038;BME280;59942;49.304;8.256;2022-08-01T06:23:36;100410.31;;;23.98;49.98
57038;BME280;59942;49.304;8.256;2022-08-01T06:26:03;100413.63;;;24.00;49.94
57038;BME280;59942;49.304;8.256;2022-08-01T06:28:30;100400.78;;;24.05;49.68
57038;BME280;59942;49.304;8.256;2022-08-01T06:30:57;100394.19;;;24.09;49.64
57038;BME280;59942;49.304;8.256;2022-08-01T06:33:26;100395.00;;;24.54;48.60
57038;BME280;59942;49.304;8.256;2022-08-01T06:35:54;100403.41;;;24.50;48.55
57038;BME280;59942;49.304;8.256;2022-08-01T06:38:21;100404.41;;;24.49;48.34
57038;BME280;59942;49.304;8.256;2022-08-01T06:40:48;100376.53;;;24.18;48.77
57038;BME280;59942;49.304;8.256;2022-08-01T06:43:15;100397.22;;;24.41;48.48
57038;BME280;59942;49.304;8.256;2022-08-01T06:45:42;100365.13;;;24.44;48.00
57038;BME280;59942;49.304;8.256;2022-08-01T06:48:09;100404.31;;;24.58;48.01
57038;BME280;59942;49.304;8.256;2022-08-01T06:50:36;100405.09;;;25.03;47.11
57038;BME280;59942;49.304;8.256;2022-08-01T06:53:03;100414.94;;;25.19;46.37
57038;BME280;59942;49.304;8.256;2022-08-01T06:55:31;100418.56;;;25.18;46.80
57038;BME280;59942;49.304;8.256;2022-08-01T06:57:58;100354.06;;;24.49;47.40
57038;BME280;59942;49.304;8.256;2022-08-01T07:00:26;100409.22;;;25.06;46.83
57038;BME280;59942;49.304;8.256;2022-08-01T07:02:55;100427.28;;;25.37;46.40
57038;BME280;59942;49.304;8.256;2022-08-01T07:05:23;100416.63;;;25.28;46.54
57038;BME280;59942;49.304;8.256;2022-08-01T07:07:50;100415.09;;;25.26;46.34
57038;BME280;59942;49.304;8.256;2022-08-01T07:10:17;100421.72;;;25.22;46.69
57038;BME280;59942;49.304;8.256;2022-08-01T07:12:49;100422.75;;;24.94;47.08
57038;BME280;59942;49.304;8.256;2022-08-01T07:15:23;100427.34;;;25.19;46.50
57038;BME280;59942;49.304;8.256;2022-08-01T07:17:55;100414.34;;;24.99;46.72
57038;BME280;59942;49.304;8.256;2022-08-01T07:20:23;100421.38;;;25.17;46.68
57038;BME280;59942;49.304;8.256;2022-08-01T07:22:51;100417.03;;;25.50;46.04
57038;BME280;59942;49.304;8.256;2022-08-01T07:25:22;100417.22;;;25.57;45.47
57038;BME280;59942;49.304;8.256;2022-08-01T07:27:48;100379.25;;;25.64;44.72
57038;BME280;59942;49.304;8.256;2022-08-01T07:30:15;100353.84;;;25.62;44.44
57038;BME280;59942;49.304;8.256;2022-08-01T07:32:42;100401.38;;;26.31;43.80
57038;BME280;59942;49.304;8.256;2022-08-01T07:35:09;100404.78;;;26.64;43.12
57038;BME280;59942;49.304;8.256;2022-08-01T07:37:36;100414.22;;;27.00;42.48
57038;BME280;59942;49.304;8.256;2022-08-01T07:40:14;100399.41;;;27.37;41.47
57038;BME280;59942;49.304;8.256;2022-08-01T07:42:41;100411.88;;;27.45;41.36
57038;BME280;59942;49.304;8.256;2022-08-01T07:45:11;100408.41;;;27.36;41.84
57038;BME280;59942;49.304;8.256;2022-08-01T07:47:38;100406.09;;;26.85;42.27
57038;BME280;59942;49.304;8.256;2022-08-01T07:50:06;100407.81;;;26.69;43.23
57038;BME280;59942;49.304;8.256;2022-08-01T07:52:33;100399.94;;;27.24;42.15
57038;BME280;59942;49.304;8.256;2022-08-01T07:55:00;100394.81;;;27.54;41.38
57038;BME280;59942;49.304;8.256;2022-08-01T07:57:27;100386.31;;;27.82;40.49
57038;BME280;59942;49.304;8.256;2022-08-01T07:59:54;100407.84;;;27.09;41.89
57038;BME280;59942;49.304;8.256;2022-08-01T08:02:21;100365.63;;;26.98;41.60
57038;BME280;59942;49.304;8.256;2022-08-01T08:04:48;100378.16;;;27.29;41.14
57038;BME280;59942;49.304;8.256;2022-08-01T08:07:15;100412.16;;;27.50;40.84
57038;BME280;59942;49.304;8.256;2022-08-01T08:09:42;100401.06;;;27.93;40.45
57038;BME280;59942;49.304;8.256;2022-08-01T08:12:16;100404.66;;;28.23;39.79
57038;BME280;59942;49.304;8.256;2022-08-01T08:14:43;100379.81;;;28.07;39.60
57038;BME280;59942;49.304;8.256;2022-08-01T08:17:10;100405.84;;;27.74;40.58
57038;BME280;59942;49.304;8.256;2022-08-01T08:19:37;100399.94;;;28.10;39.92
57038;BME280;59942;49.304;8.256;2022-08-01T08:22:07;100411.53;;;27.94;40.56
57038;BME280;59942;49.304;8.256;2022-08-01T08:24:36;100398.31;;;28.62;38.86
57038;BME280;59942;49.304;8.256;2022-08-01T08:27:12;100407.31;;;28.23;39.82
57038;BME280;59942;49.304;8.256;2022-08-01T08:29:39;100396.63;;;28.61;38.90
57038;BME280;59942;49.304;8.256;2022-08-01T08:32:06;100395.19;;;28.73;37.86
57038;BME280;59942;49.304;8.256;2022-08-01T08:34:34;100397.91;;;29.25;37.74
57038;BME280;59942;49.304;8.256;2022-08-01T08:37:01;100396.53;;;29.14;37.96
57038;BME280;59942;49.304;8.256;2022-08-01T08:39:28;100394.97;;;28.90;38.39
57038;BME280;59942;49.304;8.256;2022-08-01T08:42:09;100397.91;;;29.61;36.82
57038;BME280;59942;49.304;8.256;2022-08-01T08:44:36;100393.13;;;29.05;38.08
57038;BME280;59942;49.304;8.256;2022-08-01T08:47:05;100362.31;;;29.39;37.15
57038;BME280;59942;49.304;8.256;2022-08-01T08:49:35;100394.94;;;29.20;37.75
57038;BME280;59942;49.304;8.256;2022-08-01T08:52:03;100390.03;;;28.19;39.78
57038;BME280;59942;49.304;8.256;2022-08-01T08:54:35;100391.22;;;28.16;40.34
57038;BME280;59942;49.304;8.256;2022-08-01T08:57:04;100394.16;;;28.89;38.74
57038;BME280;59942;49.304;8.256;2022-08-01T08:59:31;100392.28;;;29.20;37.71
57038;BME280;59942;49.304;8.256;2022-08-01T09:01:58;100392.78;;;29.45;37.03
57038;BME280;59942;49.304;8.256;2022-08-01T09:04:26;100386.72;;;29.51;37.18
57038;BME280;59942;49.304;8.256;2022-08-01T09:06:54;100394.03;;;29.27;37.05
57038;BME280;59942;49.304;8.256;2022-08-01T09:09:22;100394.63;;;29.44;37.20
57038;BME280;59942;49.304;8.256;2022-08-01T09:11:50;100380.94;;;28.66;38.88
57038;BME280;59942;49.304;8.256;2022-08-01T09:14:24;100389.91;;;29.10;37.72
57038;BME280;59942;49.304;8.256;2022-08-01T09:17:05;100398.31;;;28.92;37.53
57038;BME280;59942;49.304;8.256;2022-08-01T09:19:35;100393.13;;;28.46;39.31
57038;BME280;59942;49.304;8.256;2022-08-01T09:22:17;100398.94;;;28.94;38.37
57038;BME280;59942;49.304;8.256;2022-08-01T09:24:58;100403.50;;;29.30;37.93
57038;BME280;59942;49.304;8.256;2022-08-01T09:27:25;100404.94;;;29.48;37.01
57038;BME280;59942;49.304;8.256;2022-08-01T09:29:52;100412.34;;;29.16;37.77
57038;BME280;59942;49.304;8.256;2022-08-01T09:32:30;100412.31;;;29.45;37.48
57038;BME280;59942;49.304;8.256;2022-08-01T09:35:23;100412.59;;;29.72;36.97
57038;BME280;59942;49.304;8.256;2022-08-01T09:38:29;100414.25;;;29.22;37.11
57038;BME280;59942;49.304;8.256;2022-08-01T09:40:57;100411.34;;;29.90;36.49
57038;BME280;59942;49.304;8.256;2022-08-01T09:43:28;100406.22;;;29.52;36.79
57038;BME280;59942;49.304;8.256;2022-08-01T09:45:57;100396.69;;;29.27;36.61
57038;BME280;59942;49.304;8.256;2022-08-01T09:48:25;100406.47;;;29.35;37.40
57038;BME280;59942;49.304;8.256;2022-08-01T09:50:57;100406.69;;;29.99;36.19
57038;BME280;59942;49.304;8.256;2022-08-01T09:53:41;100414.50;;;29.57;37.29
57038;BME280;59942;49.304;8.256;2022-08-01T09:56:21;100408.66;;;28.42;39.21
57038;BME280;59942;49.304;8.256;2022-08-01T09:58:54;100414.22;;;29.52;37.12
57038;BME280;59942;49.304;8.256;2022-08-01T10:01:41;100412.69;;;30.29;35.75
57038;BME280;59942;49.304;8.256;2022-08-01T10:04:17;100416.13;;;30.79;35.04
57038;BME280;59942;49.304;8.256;2022-08-01T10:06:47;100403.91;;;30.98;34.74
57038;BME280;59942;49.304;8.256;2022-08-01T10:09:39;100401.72;;;30.80;34.91
57038;BME280;59942;49.304;8.256;2022-08-01T10:12:07;100410.81;;;30.86;35.01
57038;BME280;59942;49.304;8.256;2022-08-01T10:14:43;100391.59;;;30.69;35.43
57038;BME280;59942;49.304;8.256;2022-08-01T10:17:17;100405.53;;;30.99;35.04
57038;BME280;59942;49.304;8.256;2022-08-01T10:19:46;100399.69;;;31.24;33.95
57038;BME280;59942;49.304;8.256;2022-08-01T10:22:18;100409.25;;;28.82;38.07
57038;BME280;59942;49.304;8.256;2022-08-01T10:24:50;100390.63;;;30.83;35.89
57038;BME280;59942;49.304;8.256;2022-08-01T10:27:21;100376.84;;;30.80;35.33
57038;BME280;59942;49.304;8.256;2022-08-01T10:30:05;100395.91;;;31.05;34.15
57038;BME280;59942;49.304;8.256;2022-08-01T10:32:52;100398.25;;;31.28;34.32
57038;BME280;59942;49.304;8.256;2022-08-01T10:35:21;100389.69;;;31.60;33.63
57038;BME280;59942;49.304;8.256;2022-08-01T10:38:08;100398.41;;;30.15;35.50
57038;BME280;59942;49.304;8.256;2022-08-01T10:40:57;100390.56;;;30.70;35.40
57038;BME280;59942;49.304;8.256;2022-08-01T10:43:25;100397.47;;;31.34;34.19
57038;BME280;59942;49.304;8.256;2022-08-01T10:45:52;100392.00;;;31.69;32.88
57038;BME280;59942;49.304;8.256;2022-08-01T10:48:33;100394.69;;;31.90;32.73
57038;BME280;59942;49.304;8.256;2022-08-01T10:51:04;100375.03;;;30.94;34.02
57038;BME280;59942;49.304;8.256;2022-08-01T10:53:50;100396.19;;;31.24;33.83
57038;BME280;59942;49.304;8.256;2022-08-01T10:56:23;100399.22;;;31.14;33.54
57038;BME280;59942;49.304;8.256;2022-08-01T10:59:01;100388.06;;;31.65;32.89
57038;BME280;59942;49.304;8.256;2022-08-01T11:01:32;100398.91;;;31.30;33.04
57038;BME280;59942;49.304;8.256;2022-08-01T11:04:11;100385.13;;;31.54;33.24
57038;BME280;59942;49.304;8.256;2022-08-01T11:06:46;100391.38;;;31.61;33.16
57038;BME280;59942;49.304;8.256;2022-08-01T11:09:24;100400.66;;;31.78;32.75
57038;BME280;59942;49.304;8.256;2022-08-01T11:12:08;100397.38;;;32.16;31.54
57038;BME280;59942;49.304;8.256;2022-08-01T11:17:38;100365.19;;;33.02;29.74
57038;BME280;59942;49.304;8.256;2022-08-01T11:20:14;100375.66;;;33.55;29.06
57038;BME280;59942;49.304;8.256;2022-08-01T11:28:32;100366.09;;;33.59;29.32
57038;BME280;59942;49.304;8.256;2022-08-01T11:38:45;100358.63;;;33.93;28.88
57038;BME280;59942;49.304;8.256;2022-08-01T11:41:14;100356.41;;;34.71;27.67
57038;BME280;59942;49.304;8.256;2022-08-01T11:44:01;100357.25;;;33.84;28.40
57038;BME280;59942;49.304;8.256;2022-08-01T11:46:52;100352.44;;;32.18;30.71
57038;BME280;59942;49.304;8.256;2022-08-01T11:52:30;100332.41;;;33.32;29.53
57038;BME280;59942;49.304;8.256;2022-08-01T11:55:17;100350.97;;;34.41;28.68
57038;BME280;59942;49.304;8.256;2022-08-01T11:57:44;100320.16;;;34.55;27.95
57038;BME280;59942;49.304;8.256;2022-08-01T12:00:17;100348.56;;;34.70;28.53
57038;BME280;59942;49.304;8.256;2022-08-01T12:02:46;100338.63;;;34.70;28.61
57038;BME280;59942;49.304;8.256;2022-08-01T12:05:15;100348.19;;;34.48;28.02
57038;BME280;59942;49.304;8.256;2022-08-01T12:07:44;100343.84;;;34.03;29.37
57038;BME280;59942;49.304;8.256;2022-08-01T12:10:15;100345.88;;;32.73;29.46
57038;BME280;59942;49.304;8.256;2022-08-01T12:12:47;100344.25;;;33.24;30.23
57038;BME280;59942;49.304;8.256;2022-08-01T12:15:16;100331.63;;;34.25;28.87
57038;BME280;59942;49.304;8.256;2022-08-01T12:17:49;100338.44;;;33.52;29.88
57038;BME280;59942;49.304;8.256;2022-08-01T12:20:28;100340.00;;;31.57;31.81
57038;BME280;59942;49.304;8.256;2022-08-01T12:23:07;100329.66;;;33.00;30.82
57038;BME280;59942;49.304;8.256;2022-08-01T12:25:35;100332.25;;;34.27;28.77
57038;BME280;59942;49.304;8.256;2022-08-01T12:28:04;100305.59;;;33.50;29.59
57038;BME280;59942;49.304;8.256;2022-08-01T12:30:32;100332.25;;;33.84;28.28
57038;BME280;59942;49.304;8.256;2022-08-01T12:33:07;100310.47;;;31.24;31.41
57038;BME280;59942;49.304;8.256;2022-08-01T12:35:37;100321.81;;;32.98;30.76
57038;BME280;59942;49.304;8.256;2022-08-01T12:38:15;100324.28;;;33.00;30.02
57038;BME280;59942;49.304;8.256;2022-08-01T12:40:44;100331.09;;;33.41;30.12
57038;BME280;59942;49.304;8.256;2022-08-01T12:43:16;100329.38;;;34.96;28.23
57038;BME280;59942;49.304;8.256;2022-08-01T12:45:55;100322.91;;;34.49;28.47
57038;BME280;59942;49.304;8.256;2022-08-01T12:48:24;100330.13;;;35.34;27.80
57038;BME280;59942;49.304;8.256;2022-08-01T12:50:52;100335.22;;;34.93;27.07
57038;BME280;59942;49.304;8.256;2022-08-01T12:53:20;100319.28;;;35.76;25.24
57038;BME280;59942;49.304;8.256;2022-08-01T12:55:49;100327.59;;;35.75;24.90
57038;BME280;59942;49.304;8.256;2022-08-01T12:58:32;100329.34;;;33.53;27.22
57038;BME280;59942;49.304;8.256;2022-08-01T13:01:05;100323.09;;;32.89;28.05
57038;BME280;59942;49.304;8.256;2022-08-01T13:03:33;100307.88;;;33.21;27.78
57038;BME280;59942;49.304;8.256;2022-08-01T13:06:00;100321.03;;;33.87;26.67
57038;BME280;59942;49.304;8.256;2022-08-01T13:08:34;100321.88;;;34.68;25.67
57038;BME280;59942;49.304;8.256;2022-08-01T13:11:06;100316.22;;;34.39;26.43
57038;BME280;59942;49.304;8.256;2022-08-01T13:13:43;100326.13;;;33.45;26.56
57038;BME280;59942;49.304;8.256;2022-08-01T13:16:16;100315.41;;;34.14;26.36
57038;BME280;59942;49.304;8.256;2022-08-01T13:19:05;100308.28;;;33.50;26.37
57038;BME280;59942;49.304;8.256;2022-08-01T13:21:33;100321.56;;;34.58;25.90
57038;BME280;59942;49.304;8.256;2022-08-01T13:24:28;100309.53;;;33.80;26.37
57038;BME280;59942;49.304;8.256;2022-08-01T13:27:01;100317.03;;;32.55;28.78
57038;BME280;59942;49.304;8.256;2022-08-01T13:29:46;100294.53;;;32.49;28.60
57038;BME280;59942;49.304;8.256;2022-08-01T13:32:22;100298.50;;;32.40;29.09
57038;BME280;59942;49.304;8.256;2022-08-01T13:35:07;100326.19;;;31.54;30.18
57038;BME280;59942;49.304;8.256;2022-08-01T13:37:36;100323.47;;;31.33;30.13
57038;BME280;59942;49.304;8.256;2022-08-01T13:40:06;100320.75;;;31.13;29.95